Time;durP1;ratioP1;P1;durP2;ratioP2;P2;SDS_P1;SDS_P2;PMS_P1;PMS_P2;Temp;Humidity;BMP_temperature;BMP_pressure;BME280_temperature;BME280_humidity;BME280_pressure;Samples;Min_cycle;Max_cycle;Signal;HPM_P1;HPM_P2
2022/05/08 00:00:12;;;;;;;15.70;3.00;;;7.60;99.90;;;;;;5011954;28;20220;-82
2022/05/08 00:02:41;;;;;;;5.10;2.30;;;7.50;99.90;;;;;;5025958;28;20213;-82
2022/05/08 00:05:10;;;;;;;15.57;3.07;;;7.50;99.90;;;;;;5040070;28;20219;-82
2022/05/08 00:07:37;;;;;;;10.10;2.87;;;7.50;99.90;;;;;;5028912;28;20200;-81
2022/05/08 00:10:04;;;;;;;10.37;2.33;;;7.50;99.90;;;;;;5036383;28;20192;-81
2022/05/08 00:12:31;;;;;;;12.70;2.53;;;7.50;99.90;;;;;;5029737;28;20222;-82
2022/05/08 00:15:00;;;;;;;12.07;2.70;;;7.40;99.90;;;;;;5014632;28;20223;-80
2022/05/08 00:17:29;;;;;;;8.97;2.57;;;7.40;99.90;;;;;;5027297;28;20208;-82
2022/05/08 00:19:56;;;;;;;8.83;2.80;;;7.40;99.90;;;;;;5036817;28;20278;-81
2022/05/08 00:22:23;;;;;;;10.07;2.57;;;7.40;99.90;;;;;;5021679;28;20226;-80
2022/05/08 00:24:50;;;;;;;9.90;2.20;;;7.30;99.90;;;;;;5029222;28;20592;-81
2022/05/08 00:27:17;;;;;;;10.60;2.80;;;7.30;99.90;;;;;;5037105;28;20203;-83
2022/05/08 00:29:44;;;;;;;7.50;2.03;;;7.30;99.90;;;;;;5009773;28;20205;-81
2022/05/08 00:32:12;;;;;;;11.07;2.60;;;7.30;99.90;;;;;;5034983;28;20196;-80
2022/05/08 00:34:42;;;;;;;9.23;2.03;;;7.30;99.90;;;;;;5027669;28;20269;-80
2022/05/08 00:37:09;;;;;;;9.43;2.53;;;7.30;99.90;;;;;;5028439;28;20212;-83
2022/05/08 00:39:36;;;;;;;6.00;2.10;;;7.30;99.90;;;;;;5028115;28;20375;-81
2022/05/08 00:42:04;;;;;;;7.33;1.87;;;7.30;99.90;;;;;;5033163;28;20204;-81
2022/05/08 00:44:31;;;;;;;10.10;2.07;;;7.20;99.90;;;;;;5032694;28;20214;-80
2022/05/08 00:46:58;;;;;;;7.63;2.20;;;7.20;99.90;;;;;;5023843;28;20207;-79
2022/05/08 00:49:26;;;;;;;9.30;1.73;;;7.10;99.90;;;;;;5015815;28;20206;-83
2022/05/08 00:51:53;;;;;;;7.13;2.47;;;7.10;99.90;;;;;;5023505;28;20227;-81
2022/05/08 00:54:20;;;;;;;8.10;2.30;;;7.10;99.90;;;;;;5026486;28;20249;-83
2022/05/08 00:56:47;;;;;;;7.47;1.93;;;7.10;99.90;;;;;;5013022;28;20203;-81
2022/05/08 00:59:14;;;;;;;10.00;2.00;;;7.10;99.90;;;;;;5042883;28;20203;-83
2022/05/08 01:01:41;;;;;;;6.10;2.10;;;7.00;99.90;;;;;;5012638;28;20204;-81
2022/05/08 01:04:09;;;;;;;8.43;2.17;;;7.00;99.90;;;;;;5012204;28;20275;-82
2022/05/08 01:06:37;;;;;;;12.30;2.73;;;7.00;99.90;;;;;;5027533;28;20259;-82
2022/05/08 01:09:06;;;;;;;10.03;2.10;;;6.90;99.90;;;;;;5007007;28;20204;-82
2022/05/08 01:11:33;;;;;;;10.30;1.70;;;6.90;99.90;;;;;;5017358;28;20192;-80
2022/05/08 01:14:01;;;;;;;8.00;2.10;;;6.90;99.90;;;;;;5032002;28;20212;-80
2022/05/08 01:16:29;;;;;;;6.30;2.00;;;6.90;99.90;;;;;;5005347;28;20192;-83
2022/05/08 01:18:56;;;;;;;12.00;2.20;;;6.80;99.90;;;;;;5038441;28;20212;-81
2022/05/08 01:21:31;;;;;;;7.43;2.13;;;6.80;99.90;;;;;;5023855;28;20302;-82
2022/05/08 01:23:58;;;;;;;6.40;2.20;;;6.80;99.90;;;;;;5009749;28;20231;-80
2022/05/08 01:26:24;;;;;;;11.43;2.73;;;6.80;99.90;;;;;;5029358;28;20214;-84
2022/05/08 01:28:52;;;;;;;8.73;2.23;;;6.70;99.90;;;;;;5038576;28;21540;-81
2022/05/08 01:31:19;;;;;;;7.97;2.50;;;6.70;99.90;;;;;;5010994;28;20223;-83
2022/05/08 01:33:46;;;;;;;6.27;2.47;;;6.70;99.90;;;;;;5031105;28;20219;-81
2022/05/08 01:36:12;;;;;;;7.37;2.03;;;6.60;99.90;;;;;;5011382;28;20258;-82
2022/05/08 01:38:41;;;;;;;3.90;2.00;;;6.60;99.90;;;;;;5033232;28;20261;-80
2022/05/08 01:41:08;;;;;;;3.83;1.90;;;6.60;99.90;;;;;;5003093;28;20223;-80
2022/05/08 01:43:36;;;;;;;10.43;2.30;;;6.60;99.90;;;;;;5006643;28;20278;-81
2022/05/08 01:46:04;;;;;;;9.43;2.03;;;6.60;99.90;;;;;;5037488;28;20695;-81
2022/05/08 01:48:30;;;;;;;13.70;2.97;;;6.60;99.90;;;;;;5007429;28;20746;-82
2022/05/08 01:50:58;;;;;;;11.10;2.40;;;6.60;99.90;;;;;;5018608;28;20204;-81
2022/05/08 01:53:26;;;;;;;10.67;2.80;;;6.50;99.90;;;;;;5033536;28;20274;-81
2022/05/08 01:55:56;;;;;;;8.53;2.13;;;6.40;99.90;;;;;;5005670;28;20622;-80
2022/05/08 01:58:25;;;;;;;11.33;1.97;;;6.40;99.90;;;;;;5015012;28;20207;-82
2022/05/08 02:00:53;;;;;;;5.70;2.50;;;6.40;99.90;;;;;;5031711;28;20270;-80
2022/05/08 02:03:22;;;;;;;9.17;2.10;;;6.40;99.90;;;;;;5027836;28;20203;-81
2022/05/08 02:05:49;;;;;;;11.50;2.90;;;6.40;99.90;;;;;;5011542;28;20216;-80
2022/05/08 02:08:17;;;;;;;9.00;2.80;;;6.40;99.90;;;;;;5042263;28;20288;-82
2022/05/08 02:10:45;;;;;;;8.57;2.30;;;6.30;99.90;;;;;;5028651;28;20203;-81
2022/05/08 02:13:13;;;;;;;9.83;2.63;;;6.30;99.90;;;;;;5020610;28;20215;-81
2022/05/08 02:15:40;;;;;;;5.87;1.77;;;6.30;99.90;;;;;;5038014;28;20203;-81
2022/05/08 02:18:13;;;;;;;10.73;2.70;;;6.30;99.90;;;;;;5016171;28;20250;-80
2022/05/08 02:20:40;;;;;;;13.97;2.70;;;6.20;99.90;;;;;;5028419;28;20986;-81
2022/05/08 02:23:08;;;;;;;7.80;2.03;;;6.10;99.90;;;;;;5029922;28;20196;-81
2022/05/08 02:25:35;;;;;;;8.00;2.23;;;6.10;99.90;;;;;;5029027;28;20200;-81
2022/05/08 02:28:03;;;;;;;6.67;2.07;;;6.10;99.90;;;;;;5020989;28;20270;-80
2022/05/08 02:30:31;;;;;;;9.93;2.37;;;6.00;99.90;;;;;;5029648;28;20184;-81
2022/05/08 02:33:00;;;;;;;10.50;2.73;;;6.00;99.90;;;;;;5035907;28;20200;-80
2022/05/08 02:35:27;;;;;;;9.53;2.57;;;6.00;99.90;;;;;;5026852;28;20220;-81
2022/05/08 02:37:55;;;;;;;8.90;2.00;;;6.00;99.90;;;;;;5018845;28;20192;-81
2022/05/08 02:40:24;;;;;;;12.00;2.97;;;6.00;99.90;;;;;;5026816;28;20716;-81
2022/05/08 02:42:51;;;;;;;7.50;2.80;;;5.90;99.90;;;;;;5031737;28;20676;-80
2022/05/08 02:45:18;;;;;;;9.27;2.40;;;5.90;99.90;;;;;;5024151;28;20229;-81
2022/05/08 02:47:46;;;;;;;8.00;2.33;;;6.00;99.90;;;;;;5029424;28;20192;-80
2022/05/08 02:50:14;;;;;;;9.30;2.27;;;6.00;99.90;;;;;;5025625;28;20200;-81
2022/05/08 02:52:42;;;;;;;10.83;2.63;;;5.90;99.90;;;;;;5010357;28;20787;-80
2022/05/08 03:00:39;;;;;;;7.57;2.33;;;5.80;99.90;;;;;;4997500;28;20258;-79
2022/05/08 03:03:09;;;;;;;8.33;3.10;;;5.80;99.90;;;;;;5012320;28;20736;-80
2022/05/08 03:05:36;;;;;;;8.47;2.27;;;5.70;99.90;;;;;;5030079;28;20441;-81
2022/05/08 03:08:05;;;;;;;5.63;2.40;;;5.60;99.90;;;;;;5031316;28;20204;-80
2022/05/08 03:11:25;;;;;;;9.77;2.03;;;5.60;99.90;;;;;;5010361;28;20202;-80
2022/05/08 03:13:19;;;;;;;7.33;2.83;;;5.60;99.90;;;;;;5011609;28;20744;-82
2022/05/08 03:15:47;;;;;;;7.87;2.60;;;5.60;99.90;;;;;;5021238;28;20231;-80
2022/05/08 03:18:18;;;;;;;7.33;2.77;;;5.60;99.90;;;;;;5034975;28;20594;-80
2022/05/08 03:20:47;;;;;;;8.10;3.00;;;5.60;99.90;;;;;;5029117;28;20922;-80
2022/05/08 03:23:15;;;;;;;4.90;2.90;;;5.60;99.90;;;;;;5013894;28;20210;-81
2022/05/08 03:25:42;;;;;;;5.33;2.80;;;5.50;99.90;;;;;;5025956;28;20274;-80
2022/05/08 03:28:09;;;;;;;12.77;3.23;;;5.50;99.90;;;;;;5030133;28;20692;-81
2022/05/08 03:30:36;;;;;;;6.20;2.70;;;5.50;99.90;;;;;;5007147;28;20421;-80
2022/05/08 03:33:03;;;;;;;8.13;3.50;;;5.50;99.90;;;;;;5033541;28;20212;-80
2022/05/08 03:35:31;;;;;;;11.13;3.37;;;5.50;99.90;;;;;;5017782;28;20219;-82
2022/05/08 03:37:58;;;;;;;10.03;3.50;;;5.50;99.90;;;;;;5028048;28;20204;-80
2022/05/08 03:40:26;;;;;;;9.57;3.00;;;5.50;99.90;;;;;;5036201;28;20211;-82
2022/05/08 03:42:53;;;;;;;12.30;3.10;;;5.40;99.90;;;;;;5034531;28;20204;-80
2022/05/08 03:45:20;;;;;;;10.73;3.50;;;5.40;99.90;;;;;;5027389;28;20231;-85
2022/05/08 03:47:50;;;;;;;11.30;3.67;;;5.40;99.90;;;;;;5030227;28;20196;-80
2022/05/08 03:50:17;;;;;;;10.27;3.10;;;5.40;99.90;;;;;;5034506;28;20199;-82
2022/05/08 03:52:45;;;;;;;15.43;3.10;;;5.40;99.90;;;;;;5034752;28;20222;-82
2022/05/08 03:55:13;;;;;;;11.27;3.60;;;5.40;99.90;;;;;;5045653;28;20577;-82
2022/05/08 03:57:40;;;;;;;15.67;3.47;;;5.50;99.90;;;;;;5014560;28;20196;-80
2022/05/08 04:00:08;;;;;;;10.43;3.27;;;5.50;99.90;;;;;;5035501;28;20208;-81
2022/05/08 04:02:39;;;;;;;10.43;3.40;;;5.50;99.90;;;;;;5026797;28;20795;-82
2022/05/08 04:05:07;;;;;;;6.90;3.50;;;5.50;99.90;;;;;;5033444;28;20231;-80
2022/05/08 04:07:34;;;;;;;9.50;3.47;;;5.50;99.90;;;;;;5025580;28;20207;-78
2022/05/08 04:10:03;;;;;;;8.40;3.90;;;5.50;99.90;;;;;;5022094;28;20202;-80
2022/05/08 04:12:29;;;;;;;9.37;3.97;;;5.50;99.90;;;;;;5008542;28;20207;-80
2022/05/08 04:14:57;;;;;;;13.93;4.00;;;5.50;99.90;;;;;;5037254;28;20223;-80
2022/05/08 04:17:24;;;;;;;16.10;7.13;;;5.50;99.90;;;;;;5020574;28;20219;-82
2022/05/08 04:19:50;;;;;;;8.63;4.07;;;5.50;99.90;;;;;;5017464;28;20641;-80
2022/05/08 04:25:07;;;;;;;11.90;3.80;;;5.60;99.90;;;;;;5035049;28;20290;-82
2022/05/08 04:27:35;;;;;;;13.73;3.87;;;5.60;99.90;;;;;;5033618;28;20923;-80
2022/05/08 04:30:03;;;;;;;11.57;4.00;;;5.60;99.90;;;;;;5036110;28;20204;-80
2022/05/08 04:32:29;;;;;;;6.17;3.90;;;5.60;99.90;;;;;;5026627;28;20212;-80
2022/05/08 04:34:56;;;;;;;11.80;3.37;;;5.60;99.90;;;;;;5030762;28;20235;-80
2022/05/08 04:37:23;;;;;;;11.40;4.37;;;5.60;99.90;;;;;;5036516;28;20588;-82
2022/05/08 04:39:50;;;;;;;11.03;3.67;;;5.70;99.90;;;;;;5031139;28;20220;-80
2022/05/08 04:42:18;;;;;;;13.97;3.63;;;5.70;99.90;;;;;;5032280;28;20310;-81
2022/05/08 04:44:45;;;;;;;11.63;3.87;;;5.70;99.90;;;;;;5039780;28;20320;-80
2022/05/08 04:47:12;;;;;;;11.60;3.40;;;5.60;99.90;;;;;;5026214;28;20684;-80
2022/05/08 04:49:39;;;;;;;10.50;3.90;;;5.70;99.90;;;;;;5018956;28;20297;-81
2022/05/08 04:52:06;;;;;;;11.37;3.83;;;5.70;99.90;;;;;;5046974;28;20200;-79
2022/05/08 04:54:33;;;;;;;20.70;4.23;;;5.70;99.90;;;;;;5026317;28;20216;-79
2022/05/08 04:57:01;;;;;;;10.10;3.77;;;5.80;99.90;;;;;;5013755;28;20207;-80
2022/05/08 04:59:29;;;;;;;5.87;3.43;;;5.80;99.90;;;;;;5035751;28;20199;-82
2022/05/08 05:01:57;;;;;;;13.43;3.90;;;5.80;99.90;;;;;;5031559;28;20223;-79
2022/05/08 05:04:23;;;;;;;13.03;3.67;;;5.90;99.90;;;;;;5019114;28;20219;-82
2022/05/08 05:06:50;;;;;;;9.97;3.77;;;5.90;99.90;;;;;;5032271;28;20200;-80
2022/05/08 05:09:17;;;;;;;10.33;4.10;;;5.90;99.90;;;;;;5011948;28;20283;-81
2022/05/08 05:11:44;;;;;;;11.67;3.50;;;5.90;99.90;;;;;;5012321;28;20199;-81
2022/05/08 05:14:11;;;;;;;8.70;3.20;;;6.00;99.90;;;;;;5028400;28;20220;-81
2022/05/08 05:16:39;;;;;;;10.43;3.27;;;6.00;99.90;;;;;;5029226;28;20192;-80
2022/05/08 05:19:06;;;;;;;10.40;2.60;;;6.10;99.90;;;;;;5047808;28;20200;-80
2022/05/08 05:21:33;;;;;;;7.83;2.90;;;6.10;99.90;;;;;;5035757;28;20862;-81
2022/05/08 05:23:59;;;;;;;10.23;3.27;;;6.20;99.90;;;;;;5034531;28;20514;-81
2022/05/08 05:26:26;;;;;;;6.63;3.40;;;6.30;99.90;;;;;;5035981;28;20204;-82
2022/05/08 05:28:53;;;;;;;10.60;3.30;;;6.30;99.90;;;;;;5035156;28;20712;-81
2022/05/08 05:31:20;;;;;;;11.37;3.20;;;6.40;99.90;;;;;;5033829;28;20234;-81
2022/05/08 05:33:49;;;;;;;11.63;3.63;;;6.50;99.90;;;;;;5032971;28;20226;-80
2022/05/08 05:36:16;;;;;;;7.30;2.90;;;6.50;99.90;;;;;;5037021;28;20199;-81
2022/05/08 05:38:42;;;;;;;9.33;2.97;;;6.60;99.90;;;;;;5039789;28;20357;-80
2022/05/08 05:41:09;;;;;;;11.50;2.93;;;6.70;99.90;;;;;;5014368;28;20303;-80
2022/05/08 05:43:36;;;;;;;6.70;2.07;;;6.70;99.90;;;;;;5015575;28;20228;-81
2022/05/08 05:48:48;;;;;;;11.70;2.77;;;6.80;99.90;;;;;;5036361;28;20907;-79
2022/05/08 05:51:16;;;;;;;7.87;2.60;;;6.90;99.90;;;;;;5028710;28;20203;-80
2022/05/08 05:53:42;;;;;;;14.43;3.33;;;7.00;99.90;;;;;;5039202;28;20225;-82
2022/05/08 05:56:09;;;;;;;16.40;2.83;;;7.00;99.90;;;;;;5008379;28;20988;-79
2022/05/08 05:58:36;;;;;;;8.97;2.60;;;7.10;99.90;;;;;;5032576;28;20200;-82
2022/05/08 06:01:03;;;;;;;12.40;2.73;;;7.20;99.90;;;;;;5029700;28;20223;-79
2022/05/08 06:03:29;;;;;;;9.53;2.93;;;7.30;99.90;;;;;;5015347;28;20664;-83
2022/05/08 06:05:57;;;;;;;7.73;2.60;;;7.40;99.90;;;;;;5013572;28;20210;-82
2022/05/08 06:08:24;;;;;;;11.90;2.57;;;7.50;99.90;;;;;;5027899;28;20196;-82
2022/05/08 06:10:51;;;;;;;12.67;2.50;;;7.60;99.90;;;;;;5042305;28;20740;-82
2022/05/08 06:13:18;;;;;;;12.90;2.90;;;7.60;99.90;;;;;;5042891;28;20200;-81
2022/05/08 06:15:45;;;;;;;11.23;2.17;;;7.70;99.90;;;;;;5030602;28;20544;-83
2022/05/08 06:18:12;;;;;;;12.87;2.33;;;7.70;99.90;;;;;;5036122;28;20706;-84
2022/05/08 06:20:39;;;;;;;9.80;2.80;;;7.80;99.90;;;;;;5029382;28;20199;-86
2022/05/08 06:23:08;;;;;;;10.30;2.33;;;7.90;99.90;;;;;;5012764;28;20273;-85
2022/05/08 06:25:35;;;;;;;16.97;2.63;;;8.00;99.90;;;;;;5024326;28;20638;-85
2022/05/08 06:28:02;;;;;;;13.37;2.77;;;8.10;99.90;;;;;;5035452;28;20196;-81
2022/05/08 06:30:29;;;;;;;9.37;2.10;;;8.20;99.90;;;;;;5034278;28;20589;-84
2022/05/08 06:32:56;;;;;;;13.87;2.33;;;8.20;99.90;;;;;;5025982;28;20200;-83
2022/05/08 06:35:27;;;;;;;10.83;2.70;;;8.30;99.90;;;;;;5031135;28;20212;-85
2022/05/08 06:38:01;;;;;;;12.77;2.30;;;8.40;99.90;;;;;;5013985;28;20291;-84
2022/05/08 06:40:30;;;;;;;11.43;2.57;;;8.50;99.90;;;;;;5042710;28;20201;-81
2022/05/08 06:42:57;;;;;;;13.00;2.53;;;8.60;99.90;;;;;;5030363;28;20223;-81
2022/05/08 06:45:24;;;;;;;13.13;2.60;;;8.70;99.90;;;;;;5006636;28;20220;-82
2022/05/08 06:47:52;;;;;;;10.40;2.73;;;8.70;99.90;;;;;;5035460;28;20183;-81
2022/05/08 06:50:19;;;;;;;13.87;2.77;;;8.80;99.90;;;;;;5030173;28;20245;-82
2022/05/08 06:52:46;;;;;;;14.37;2.33;;;8.90;99.90;;;;;;4995166;28;20268;-82
2022/05/08 06:55:13;;;;;;;10.60;2.20;;;8.90;99.90;;;;;;5029333;28;20250;-81
2022/05/08 06:57:42;;;;;;;14.20;3.20;;;9.00;99.90;;;;;;5007225;28;20204;-82
2022/05/08 07:02:54;;;;;;;12.70;2.60;;;9.10;99.90;;;;;;5006694;28;20224;-79
2022/05/08 07:05:20;;;;;;;11.53;2.27;;;9.10;99.90;;;;;;5032480;28;20222;-82
2022/05/08 07:07:48;;;;;;;11.17;2.23;;;9.20;99.90;;;;;;5009866;28;20208;-82
2022/05/08 07:10:15;;;;;;;9.03;2.37;;;9.20;99.90;;;;;;5029086;28;20767;-81
2022/05/08 07:12:43;;;;;;;13.83;2.40;;;9.20;99.90;;;;;;5021792;28;20192;-80
2022/05/08 07:15:11;;;;;;;12.03;2.93;;;9.20;99.90;;;;;;5024098;28;20228;-82
2022/05/08 07:17:39;;;;;;;9.43;2.00;;;9.30;99.90;;;;;;5021453;28;20207;-82
2022/05/08 07:20:08;;;;;;;10.80;2.90;;;9.40;99.90;;;;;;5011894;28;20195;-82
2022/05/08 07:22:35;;;;;;;10.73;2.53;;;9.50;99.90;;;;;;5016927;28;20224;-82
2022/05/08 07:25:03;;;;;;;11.20;2.77;;;9.50;99.90;;;;;;4997832;28;20219;-80
2022/05/08 07:27:32;;;;;;;8.50;2.10;;;9.60;99.90;;;;;;5029250;28;20643;-82
2022/05/08 07:30:00;;;;;;;8.97;2.30;;;9.60;99.90;;;;;;5004950;28;20206;-82
2022/05/08 07:32:27;;;;;;;14.43;2.20;;;9.70;99.90;;;;;;5030324;28;20210;-81
2022/05/08 07:37:38;;;;;;;10.00;2.33;;;9.80;99.90;;;;;;5021640;28;20717;-81
2022/05/08 07:40:06;;;;;;;9.13;2.20;;;9.90;99.90;;;;;;5014009;28;20219;-83
2022/05/08 07:42:33;;;;;;;7.60;2.10;;;9.90;99.90;;;;;;5027602;28;20234;-80
2022/05/08 07:45:01;;;;;;;11.47;2.60;;;9.80;99.90;;;;;;5020026;28;20279;-82
2022/05/08 07:47:28;;;;;;;14.27;2.90;;;9.90;99.90;;;;;;5022985;28;20210;-81
2022/05/08 07:49:54;;;;;;;10.90;2.03;;;9.90;99.90;;;;;;5015920;28;20242;-82
2022/05/08 07:52:21;;;;;;;8.87;2.10;;;10.00;99.90;;;;;;5012474;28;20192;-81
2022/05/08 07:54:49;;;;;;;12.27;1.93;;;10.10;99.90;;;;;;5031137;28;20228;-81
2022/05/08 07:57:15;;;;;;;14.93;2.57;;;10.20;99.90;;;;;;5015777;28;20295;-81
2022/05/08 07:59:42;;;;;;;8.63;2.57;;;10.30;99.90;;;;;;5026280;28;20246;-81
2022/05/08 08:02:11;;;;;;;9.03;2.13;;;10.40;99.90;;;;;;5035429;28;20261;-84
2022/05/08 08:04:37;;;;;;;10.37;2.30;;;10.50;99.90;;;;;;5028257;28;20235;-81
2022/05/08 08:07:04;;;;;;;13.00;2.93;;;10.60;99.90;;;;;;5014503;28;20223;-83
2022/05/08 08:09:31;;;;;;;7.47;2.50;;;10.60;99.90;;;;;;5037143;28;20668;-82
2022/05/08 08:11:58;;;;;;;9.53;3.23;;;10.70;99.90;;;;;;5018785;28;20208;-81
2022/05/08 08:14:25;;;;;;;11.63;2.50;;;10.70;99.90;;;;;;5028980;28;20239;-82
2022/05/08 08:16:54;;;;;;;7.60;2.13;;;10.80;99.90;;;;;;5038863;28;20200;-83
2022/05/08 08:19:22;;;;;;;12.07;2.27;;;10.80;99.90;;;;;;5027142;28;20208;-81
2022/05/08 08:21:50;;;;;;;5.90;2.10;;;11.00;99.90;;;;;;5012260;28;20215;-81
2022/05/08 08:24:17;;;;;;;10.03;2.80;;;11.00;99.90;;;;;;5008663;28;20285;-81
2022/05/08 08:26:44;;;;;;;9.60;2.53;;;11.10;99.90;;;;;;5012182;28;20578;-82
2022/05/08 08:29:11;;;;;;;9.33;2.60;;;11.10;99.90;;;;;;5010156;28;20211;-83
2022/05/08 08:31:38;;;;;;;7.10;2.00;;;11.10;99.90;;;;;;5038510;28;20657;-83
2022/05/08 08:34:05;;;;;;;9.67;2.03;;;11.40;99.90;;;;;;5006724;28;20236;-84
2022/05/08 08:36:33;;;;;;;9.87;2.37;;;11.50;99.90;;;;;;5020271;28;20196;-82
2022/05/08 08:39:01;;;;;;;8.07;1.97;;;11.60;99.90;;;;;;5030113;28;20269;-84
2022/05/08 08:41:30;;;;;;;8.53;2.23;;;11.70;99.90;;;;;;5024463;28;20853;-82
2022/05/08 08:49:39;;;;;;;9.60;2.80;;;11.80;99.90;;;;;;5039352;28;20279;-82
2022/05/08 08:52:08;;;;;;;11.10;2.37;;;11.80;99.90;;;;;;5026043;28;20564;-84
2022/05/08 08:54:35;;;;;;;6.83;2.50;;;11.80;99.90;;;;;;5029757;28;20593;-82
2022/05/08 08:57:02;;;;;;;9.23;2.30;;;11.80;99.90;;;;;;5029447;28;20279;-84
2022/05/08 08:59:28;;;;;;;11.37;2.30;;;11.90;99.90;;;;;;5019863;28;20195;-82
2022/05/08 09:01:55;;;;;;;5.63;2.63;;;12.00;99.90;;;;;;5013677;28;20224;-82
2022/05/08 09:04:22;;;;;;;7.90;2.67;;;12.00;99.90;;;;;;5025875;28;20975;-82
2022/05/08 09:06:49;;;;;;;13.20;2.60;;;12.00;99.90;;;;;;5012109;28;20204;-81
2022/05/08 09:09:26;;;;;;;9.17;2.17;;;12.00;99.90;;;;;;5005376;28;20214;-81
2022/05/08 09:11:55;;;;;;;8.00;2.60;;;12.10;99.90;;;;;;5028705;28;20226;-83
2022/05/08 09:14:32;;;;;;;7.00;2.13;;;12.20;99.90;;;;;;4999095;28;20223;-81
2022/05/08 09:17:00;;;;;;;6.77;2.23;;;12.20;99.90;;;;;;5030213;28;20195;-82
2022/05/08 09:19:37;;;;;;;7.43;2.40;;;12.20;99.90;;;;;;5027649;28;20202;-81
2022/05/08 09:22:05;;;;;;;6.73;2.40;;;12.30;99.90;;;;;;5013258;28;20714;-83
2022/05/08 09:24:35;;;;;;;8.77;2.60;;;12.40;99.90;;;;;;5028486;28;20327;-81
2022/05/08 09:27:12;;;;;;;6.43;2.23;;;12.50;99.90;;;;;;5031861;28;20236;-83
2022/05/08 09:29:40;;;;;;;7.47;2.70;;;12.50;99.90;;;;;;5042158;28;20249;-81
2022/05/08 09:32:07;;;;;;;8.93;2.03;;;12.50;99.90;;;;;;5019515;28;20215;-83
2022/05/08 09:34:56;;;;;;;5.93;2.07;;;12.40;99.90;;;;;;5038433;28;20589;-81
2022/05/08 09:37:23;;;;;;;6.10;1.80;;;12.40;99.90;;;;;;5033174;28;20895;-81
2022/05/08 09:40:13;;;;;;;9.90;2.50;;;12.50;99.90;;;;;;5038065;28;20211;-82
2022/05/08 09:42:41;;;;;;;8.67;2.27;;;12.50;99.90;;;;;;5012982;28;20234;-82
2022/05/08 09:45:10;;;;;;;11.00;3.10;;;12.70;99.90;;;;;;5016873;28;20224;-82
2022/05/08 09:47:43;;;;;;;7.20;2.20;;;12.80;99.90;;;;;;5041792;28;20730;-81
2022/05/08 09:50:10;;;;;;;9.67;2.57;;;12.90;99.90;;;;;;5022863;28;20231;-82
2022/05/08 09:52:39;;;;;;;8.63;2.50;;;13.00;99.90;;;;;;5030208;28;20208;-81
2022/05/08 09:55:12;;;;;;;10.57;2.50;;;12.90;99.90;;;;;;5023869;28;20279;-82
2022/05/08 09:57:39;;;;;;;10.87;2.53;;;13.00;99.90;;;;;;5033969;28;20242;-81
2022/05/08 10:00:09;;;;;;;7.77;2.63;;;12.90;99.90;;;;;;5025508;28;20196;-83
2022/05/08 10:02:38;;;;;;;7.03;2.17;;;13.00;99.90;;;;;;5013974;28;20232;-82
2022/05/08 10:05:08;;;;;;;13.97;3.00;;;13.10;99.70;;;;;;5028404;28;20228;-84
2022/05/08 10:07:37;;;;;;;11.90;2.83;;;13.10;99.40;;;;;;5023225;28;20677;-82
2022/05/08 10:15:46;;;;;;;9.40;2.20;;;13.40;98.20;;;;;;5006653;28;20560;-82
2022/05/08 10:18:26;;;;;;;9.77;2.30;;;13.50;97.40;;;;;;5006207;28;20599;-82
2022/05/08 10:21:07;;;;;;;6.80;2.20;;;13.50;97.30;;;;;;5029427;28;20222;-84
2022/05/08 10:23:36;;;;;;;5.53;2.00;;;13.50;96.80;;;;;;5015292;28;20378;-83
2022/05/08 10:26:20;;;;;;;8.40;2.47;;;13.50;97.00;;;;;;5025549;28;20239;-84
2022/05/08 10:29:15;;;;;;;9.47;2.60;;;13.50;95.70;;;;;;5036476;28;20204;-82
2022/05/08 10:31:44;;;;;;;9.77;2.60;;;13.50;95.70;;;;;;4984697;28;20673;-81
2022/05/08 10:34:11;;;;;;;18.27;8.93;;;13.50;96.10;;;;;;5013122;28;20227;-84
2022/05/08 10:36:39;;;;;;;9.43;2.33;;;13.50;95.50;;;;;;5021246;28;20206;-81
2022/05/08 10:39:38;;;;;;;8.67;2.57;;;13.60;95.80;;;;;;5024396;28;20211;-81
2022/05/08 10:42:05;;;;;;;8.90;2.53;;;13.80;94.50;;;;;;5009118;28;20192;-82
2022/05/08 10:44:40;;;;;;;10.63;2.70;;;13.70;95.30;;;;;;5017768;28;20315;-82
2022/05/08 10:47:42;;;;;;;9.33;2.90;;;13.80;95.20;;;;;;5013541;28;20192;-81
2022/05/08 10:50:12;;;;;;;12.20;2.77;;;14.00;93.90;;;;;;5025006;28;20269;-83
2022/05/08 10:52:44;;;;;;;5.73;2.20;;;14.10;94.60;;;;;;5019464;28;20231;-81
2022/05/08 10:55:14;;;;;;;8.93;2.80;;;14.30;94.70;;;;;;5033124;28;20642;-86
2022/05/08 10:57:43;;;;;;;8.23;2.50;;;14.20;95.00;;;;;;5018304;28;21516;-83
2022/05/08 11:00:17;;;;;;;9.57;2.97;;;14.30;94.80;;;;;;5033854;28;20208;-85
2022/05/08 11:02:46;;;;;;;8.20;2.87;;;14.30;94.40;;;;;;5013987;28;20212;-82
2022/05/08 11:05:15;;;;;;;9.47;2.47;;;;;;;;;;5014037;28;20609;-81
2022/05/08 11:07:49;;;;;;;10.23;3.33;;;14.40;94.90;;;;;;5032430;28;20208;-82
2022/05/08 11:10:18;;;;;;;10.00;2.53;;;14.50;94.30;;;;;;5008299;28;20200;-81
2022/05/08 11:12:59;;;;;;;8.57;2.50;;;14.60;93.10;;;;;;5013002;28;20676;-83
2022/05/08 11:15:29;;;;;;;6.37;2.17;;;14.60;91.90;;;;;;5027842;28;20311;-83
2022/05/08 11:18:07;;;;;;;7.00;1.90;;;14.50;91.50;;;;;;5014688;28;20580;-85
2022/05/08 11:20:36;;;;;;;10.93;2.30;;;14.30;91.30;;;;;;5010749;28;20283;-80
2022/05/08 11:23:03;;;;;;;8.20;2.50;;;14.40;91.50;;;;;;5022788;28;20624;-84
2022/05/08 11:25:31;;;;;;;6.17;2.03;;;14.50;91.00;;;;;;5024635;28;20212;-83
2022/05/08 11:27:58;;;;;;;8.57;2.20;;;14.50;91.30;;;;;;5016303;28;20196;-85
2022/05/08 11:30:35;;;;;;;9.00;2.37;;;14.60;91.20;;;;;;5022921;28;20196;-84
2022/05/08 11:36:07;;;;;;;6.00;2.07;;;14.50;99.50;;;;;;4998032;28;20211;-80
2022/05/08 11:38:41;;;;;;;6.87;2.60;;;14.90;90.30;;;;;;5006232;28;20208;-81
2022/05/08 11:41:10;;;;;;;8.83;2.13;;;15.10;89.10;;;;;;5010538;28;20410;-86
2022/05/08 11:43:37;;;;;;;7.97;2.17;;;15.10;88.60;;;;;;5014210;28;20251;-85
2022/05/08 11:46:06;;;;;;;7.23;2.30;;;15.10;88.80;;;;;;5004616;28;20754;-85
2022/05/08 11:48:37;;;;;;;6.73;2.30;;;15.30;89.20;;;;;;5018824;28;20199;-84
2022/05/08 11:51:05;;;;;;;6.67;2.20;;;15.50;89.20;;;;;;5021968;28;20208;-84
2022/05/08 11:53:39;;;;;;;5.87;2.20;;;15.50;90.60;;;;;;5020108;28;20584;-82
2022/05/08 11:56:21;;;;;;;9.53;2.30;;;15.60;84.00;;;;;;5007065;28;20211;-83
2022/05/08 11:58:48;;;;;;;6.93;2.13;;;15.50;85.70;;;;;;5015121;28;20574;-82
2022/05/08 12:01:27;;;;;;;11.23;2.83;;;15.60;87.20;;;;;;5021334;28;20210;-81
2022/05/08 12:03:55;;;;;;;8.27;2.43;;;15.60;88.20;;;;;;5035603;28;20215;-81
2022/05/08 12:06:22;;;;;;;9.43;1.87;;;15.70;87.50;;;;;;5024831;28;20331;-82
2022/05/08 12:08:49;;;;;;;5.77;2.20;;;15.80;84.60;;;;;;5010416;28;20211;-81
2022/05/08 12:11:35;;;;;;;5.00;2.13;;;15.90;82.70;;;;;;5030328;28;20435;-81
2022/05/08 12:14:06;;;;;;;8.63;2.30;;;15.80;82.80;;;;;;5026022;28;20216;-84
2022/05/08 12:16:35;;;;;;;8.00;2.07;;;15.90;82.10;;;;;;5008863;28;20322;-81
2022/05/08 12:19:16;;;;;;;6.63;2.37;;;15.90;82.40;;;;;;5007197;28;20215;-85
2022/05/08 12:21:44;;;;;;;11.30;2.70;;;15.90;81.50;;;;;;5019358;28;20201;-81
2022/05/08 12:24:13;;;;;;;9.93;2.80;;;16.10;81.60;;;;;;4996337;28;20223;-82
2022/05/08 12:26:40;;;;;;;7.90;2.20;;;16.30;80.50;;;;;;5003670;28;20207;-81
2022/05/08 12:29:08;;;;;;;4.83;2.40;;;16.20;79.40;;;;;;5013330;28;20208;-83
2022/05/08 12:31:37;;;;;;;6.47;2.37;;;16.30;79.30;;;;;;5000336;28;20665;-81
2022/05/08 12:34:05;;;;;;;20.73;9.27;;;16.30;78.30;;;;;;5021482;28;20231;-81
2022/05/08 12:36:33;;;;;;;9.10;2.43;;;16.30;79.00;;;;;;5007367;28;20206;-86
2022/05/08 12:39:00;;;;;;;7.67;2.23;;;16.40;79.40;;;;;;5000246;28;20695;-80
2022/05/08 12:41:27;;;;;;;8.73;2.03;;;16.50;77.90;;;;;;5018364;28;20215;-83
2022/05/08 12:43:54;;;;;;;7.60;2.23;;;16.60;76.30;;;;;;5049788;28;20318;-82
2022/05/08 12:46:21;;;;;;;4.77;2.10;;;16.70;76.30;;;;;;5025454;28;20222;-82
2022/05/08 12:48:48;;;;;;;7.03;2.20;;;16.80;75.20;;;;;;5019355;28;20414;-82
2022/05/08 12:51:15;;;;;;;6.43;1.90;;;16.90;74.70;;;;;;5008905;28;20290;-83
2022/05/08 12:53:42;;;;;;;6.13;2.07;;;17.00;73.90;;;;;;5006894;28;20556;-81
2022/05/08 12:56:10;;;;;;;11.27;3.17;;;17.10;75.50;;;;;;4996277;28;20201;-81
2022/05/08 13:01:21;;;;;;;10.50;2.47;;;17.80;76.10;;;;;;5027473;28;20207;-82
2022/05/08 13:03:49;;;;;;;9.33;2.23;;;18.30;71.60;;;;;;5001504;28;20482;-83
2022/05/08 13:06:16;;;;;;;7.00;2.03;;;18.50;69.10;;;;;;5025375;28;20280;-83
2022/05/08 13:08:43;;;;;;;4.73;2.10;;;18.50;67.20;;;;;;5007326;28;20920;-83
2022/05/08 13:11:09;;;;;;;8.10;2.23;;;18.50;66.80;;;;;;5005321;28;20691;-82
2022/05/08 13:13:37;;;;;;;3.10;1.93;;;18.50;66.50;;;;;;5021205;28;20519;-82
2022/05/08 13:16:04;;;;;;;6.87;2.00;;;18.80;65.40;;;;;;5008115;28;20223;-80
2022/05/08 13:18:31;;;;;;;4.43;2.20;;;18.70;65.00;;;;;;5022412;28;20196;-82
2022/05/08 13:20:59;;;;;;;5.10;2.20;;;19.20;64.60;;;;;;5000881;28;20212;-80
2022/05/08 13:23:26;;;;;;;5.30;2.53;;;19.90;63.10;;;;;;5005149;28;20622;-80
2022/05/08 13:25:53;;;;;;;6.40;1.80;;;20.20;63.80;;;;;;5002037;28;20216;-80
2022/05/08 13:28:20;;;;;;;7.00;2.20;;;20.50;61.00;;;;;;5024909;28;20204;-81